sensor_id;sensor_type;location;lat;lon;timestamp;temperature;humidity
71047;SHT31;58703;48.978;8.982;2022-12-18T00:02:15;-11.10;97.12
71047;SHT31;58703;48.978;8.982;2022-12-18T00:04:40;-10.97;96.80
71047;SHT31;58703;48.978;8.982;2022-12-18T00:07:06;-11.25;94.60
71047;SHT31;58703;48.978;8.982;2022-12-18T00:09:31;-11.38;95.17
71047;SHT31;58703;48.978;8.982;2022-12-18T00:11:57;-11.39;95.96
71047;SHT31;58703;48.978;8.982;2022-12-18T00:14:22;-11.36;96.33
71047;SHT31;58703;48.978;8.982;2022-12-18T00:16:48;-11.46;95.82
71047;SHT31;58703;48.978;8.982;2022-12-18T00:19:14;-11.56;95.60
71047;SHT31;58703;48.978;8.982;2022-12-18T00:21:41;-11.65;96.01
71047;SHT31;58703;48.978;8.982;2022-12-18T00:24:08;-11.67;95.70
71047;SHT31;58703;48.978;8.982;2022-12-18T00:26:36;-11.65;95.91
71047;SHT31;58703;48.978;8.982;2022-12-18T00:29:07;-11.74;95.80
71047;SHT31;58703;48.978;8.982;2022-12-18T00:31:33;-11.66;96.46
71047;SHT31;58703;48.978;8.982;2022-12-18T00:33:59;-11.66;96.57
71047;SHT31;58703;48.978;8.982;2022-12-18T00:36:27;-11.65;97.01
71047;SHT31;58703;48.978;8.982;2022-12-18T00:38:54;-11.59;97.36
71047;SHT31;58703;48.978;8.982;2022-12-18T00:41:20;-11.50;97.30
71047;SHT31;58703;48.978;8.982;2022-12-18T00:44:06;-11.56;95.87
71047;SHT31;58703;48.978;8.982;2022-12-18T00:46:32;-11.66;95.99
71047;SHT31;58703;48.978;8.982;2022-12-18T00:48:58;-11.65;96.79
71047;SHT31;58703;48.978;8.982;2022-12-18T00:51:25;-11.59;97.40
71047;SHT31;58703;48.978;8.982;2022-12-18T00:53:50;-11.60;97.32
71047;SHT31;58703;48.978;8.982;2022-12-18T00:56:16;-11.60;97.37
71047;SHT31;58703;48.978;8.982;2022-12-18T00:58:41;-11.47;97.95
71047;SHT31;58703;48.978;8.982;2022-12-18T01:01:08;-11.34;98.28
71047;SHT31;58703;48.978;8.982;2022-12-18T01:03:35;-11.19;97.76
71047;SHT31;58703;48.978;8.982;2022-12-18T01:06:10;-11.16;96.33
71047;SHT31;58703;48.978;8.982;2022-12-18T01:08:37;-11.43;95.03
71047;SHT31;58703;48.978;8.982;2022-12-18T01:11:09;-11.55;95.32
71047;SHT31;58703;48.978;8.982;2022-12-18T01:13:35;-11.69;95.34
71047;SHT31;58703;48.978;8.982;2022-12-18T01:16:02;-11.47;98.01
71047;SHT31;58703;48.978;8.982;2022-12-18T01:18:28;-11.55;95.64
71047;SHT31;58703;48.978;8.982;2022-12-18T01:20:55;-11.52;96.12
71047;SHT31;58703;48.978;8.982;2022-12-18T01:23:21;-11.52;96.25
71047;SHT31;58703;48.978;8.982;2022-12-18T01:25:48;-11.43;97.06
71047;SHT31;58703;48.978;8.982;2022-12-18T01:28:15;-11.46;96.22
71047;SHT31;58703;48.978;8.982;2022-12-18T01:30:41;-11.47;96.18
71047;SHT31;58703;48.978;8.982;2022-12-18T01:33:08;-11.47;95.89
71047;SHT31;58703;48.978;8.982;2022-12-18T01:35:41;-11.52;95.45
71047;SHT31;58703;48.978;8.982;2022-12-18T01:38:07;-11.62;95.13
71047;SHT31;58703;48.978;8.982;2022-12-18T01:40:34;-11.59;96.65
71047;SHT31;58703;48.978;8.982;2022-12-18T01:43:01;-11.49;96.78
71047;SHT31;58703;48.978;8.982;2022-12-18T01:45:29;-11.45;96.50
71047;SHT31;58703;48.978;8.982;2022-12-18T01:48:06;-11.69;95.78
71047;SHT31;58703;48.978;8.982;2022-12-18T01:50:42;-11.69;96.48
71047;SHT31;58703;48.978;8.982;2022-12-18T01:53:15;-11.50;97.14
71047;SHT31;58703;48.978;8.982;2022-12-18T01:55:51;-11.62;96.01
71047;SHT31;58703;48.978;8.982;2022-12-18T01:58:20;-11.65;96.04
71047;SHT31;58703;48.978;8.982;2022-12-18T02:00:48;-11.63;96.72
71047;SHT31;58703;48.978;8.982;2022-12-18T02:03:15;-11.60;96.63
71047;SHT31;58703;48.978;8.982;2022-12-18T02:05:47;-11.55;96.54
71047;SHT31;58703;48.978;8.982;2022-12-18T02:08:32;-11.63;96.46
71047;SHT31;58703;48.978;8.982;2022-12-18T02:11:36;-11.50;97.39
71047;SHT31;58703;48.978;8.982;2022-12-18T02:28:21;-11.16;97.38
71047;SHT31;58703;48.978;8.982;2022-12-18T02:30:50;-11.19;97.46
71047;SHT31;58703;48.978;8.982;2022-12-18T02:33:21;-11.11;97.59
71047;SHT31;58703;48.978;8.982;2022-12-18T02:35:53;-11.07;97.65
71047;SHT31;58703;48.978;8.982;2022-12-18T02:38:20;-11.00;97.82
71047;SHT31;58703;48.978;8.982;2022-12-18T02:40:48;-10.95;97.65
71047;SHT31;58703;48.978;8.982;2022-12-18T02:43:16;-10.87;98.03
71047;SHT31;58703;48.978;8.982;2022-12-18T02:45:54;-10.87;96.41
71047;SHT31;58703;48.978;8.982;2022-12-18T02:48:24;-10.97;95.90
71047;SHT31;58703;48.978;8.982;2022-12-18T02:51:36;-11.04;96.95
71047;SHT31;58703;48.978;8.982;2022-12-18T02:54:34;-10.95;97.27
71047;SHT31;58703;48.978;8.982;2022-12-18T02:57:33;-10.97;97.52
71047;SHT31;58703;48.978;8.982;2022-12-18T03:02:41;-11.05;97.08
71047;SHT31;58703;48.978;8.982;2022-12-18T03:05:26;-11.02;97.35
71047;SHT31;58703;48.978;8.982;2022-12-18T03:07:58;-11.02;97.35
71047;SHT31;58703;48.978;8.982;2022-12-18T03:10:28;-11.04;97.46
71047;SHT31;58703;48.978;8.982;2022-12-18T03:13:02;-11.04;97.23
71047;SHT31;58703;48.978;8.982;2022-12-18T03:15:36;-10.95;97.81
71047;SHT31;58703;48.978;8.982;2022-12-18T03:18:34;-10.91;97.66
71047;SHT31;58703;48.978;8.982;2022-12-18T03:21:06;-10.94;97.83
71047;SHT31;58703;48.978;8.982;2022-12-18T03:23:40;-10.91;97.68
71047;SHT31;58703;48.978;8.982;2022-12-18T03:26:13;-10.89;97.56
71047;SHT31;58703;48.978;8.982;2022-12-18T03:28:59;-10.95;97.10
71047;SHT31;58703;48.978;8.982;2022-12-18T03:31:31;-10.97;97.31
71047;SHT31;58703;48.978;8.982;2022-12-18T03:34:33;-10.95;97.59
71047;SHT31;58703;48.978;8.982;2022-12-18T03:37:02;-10.97;97.36
71047;SHT31;58703;48.978;8.982;2022-12-18T03:39:28;-10.97;97.19
71047;SHT31;58703;48.978;8.982;2022-12-18T03:42:06;-10.97;97.32
71047;SHT31;58703;48.978;8.982;2022-12-18T03:44:44;-10.89;97.45
71047;SHT31;58703;48.978;8.982;2022-12-18T03:50:17;-10.74;97.92
71047;SHT31;58703;48.978;8.982;2022-12-18T03:53:11;-10.77;97.78
71047;SHT31;58703;48.978;8.982;2022-12-18T03:55:42;-10.74;97.56
71047;SHT31;58703;48.978;8.982;2022-12-18T03:58:09;-10.75;97.56
71047;SHT31;58703;48.978;8.982;2022-12-18T04:00:37;-10.70;98.02
71047;SHT31;58703;48.978;8.982;2022-12-18T04:03:04;-10.68;97.97
71047;SHT31;58703;48.978;8.982;2022-12-18T04:05:33;-10.74;97.08
71047;SHT31;58703;48.978;8.982;2022-12-18T04:08:00;-10.83;96.64
71047;SHT31;58703;48.978;8.982;2022-12-18T04:10:27;-11.00;96.79
71047;SHT31;58703;48.978;8.982;2022-12-18T04:12:56;-11.04;97.06
71047;SHT31;58703;48.978;8.982;2022-12-18T04:15:21;-11.05;97.29
71047;SHT31;58703;48.978;8.982;2022-12-18T04:17:48;-11.01;97.70
71047;SHT31;58703;48.978;8.982;2022-12-18T04:20:14;-11.01;97.27
71047;SHT31;58703;48.978;8.982;2022-12-18T04:22:40;-11.05;96.95
71047;SHT31;58703;48.978;8.982;2022-12-18T04:25:07;-11.08;97.09
71047;SHT31;58703;48.978;8.982;2022-12-18T04:27:34;-11.15;96.96
71047;SHT31;58703;48.978;8.982;2022-12-18T04:30:01;-11.18;96.92
71047;SHT31;58703;48.978;8.982;2022-12-18T04:32:28;-11.18;96.45
71047;SHT31;58703;48.978;8.982;2022-12-18T04:34:55;-11.25;96.89
71047;SHT31;58703;48.978;8.982;2022-12-18T04:37:22;-11.24;96.89
71047;SHT31;58703;48.978;8.982;2022-12-18T04:39:49;-11.29;96.50
71047;SHT31;58703;48.978;8.982;2022-12-18T04:42:14;-11.32;96.35
71047;SHT31;58703;48.978;8.982;2022-12-18T04:44:41;-11.32;96.78
71047;SHT31;58703;48.978;8.982;2022-12-18T04:47:06;-11.39;96.79
71047;SHT31;58703;48.978;8.982;2022-12-18T04:49:34;-11.45;96.82
71047;SHT31;58703;48.978;8.982;2022-12-18T04:51:59;-11.38;97.24
71047;SHT31;58703;48.978;8.982;2022-12-18T04:54:25;-11.35;96.83
71047;SHT31;58703;48.978;8.982;2022-12-18T04:56:51;-11.29;97.43
71047;SHT31;58703;48.978;8.982;2022-12-18T04:59:18;-11.28;97.04
71047;SHT31;58703;48.978;8.982;2022-12-18T05:01:43;-11.11;97.44
71047;SHT31;58703;48.978;8.982;2022-12-18T05:04:10;-10.88;97.34
71047;SHT31;58703;48.978;8.982;2022-12-18T05:06:36;-10.80;97.07
71047;SHT31;58703;48.978;8.982;2022-12-18T05:09:02;-10.71;97.31
71047;SHT31;58703;48.978;8.982;2022-12-18T05:11:27;-10.83;96.29
71047;SHT31;58703;48.978;8.982;2022-12-18T05:13:54;-10.97;96.04
71047;SHT31;58703;48.978;8.982;2022-12-18T05:16:24;-11.04;96.07
71047;SHT31;58703;48.978;8.982;2022-12-18T05:18:49;-11.07;96.43
71047;SHT31;58703;48.978;8.982;2022-12-18T05:21:15;-11.12;96.76
71047;SHT31;58703;48.978;8.982;2022-12-18T05:23:41;-11.12;97.24
71047;SHT31;58703;48.978;8.982;2022-12-18T05:26:08;-11.26;96.82
71047;SHT31;58703;48.978;8.982;2022-12-18T05:28:35;-11.22;97.22
71047;SHT31;58703;48.978;8.982;2022-12-18T05:31:03;-11.08;97.41
71047;SHT31;58703;48.978;8.982;2022-12-18T05:33:31;-11.12;97.17
71047;SHT31;58703;48.978;8.982;2022-12-18T05:36:05;-11.14;96.77
71047;SHT31;58703;48.978;8.982;2022-12-18T05:38:33;-11.10;96.53
71047;SHT31;58703;48.978;8.982;2022-12-18T05:41:00;-10.92;97.10
71047;SHT31;58703;48.978;8.982;2022-12-18T05:43:26;-10.67;97.54
71047;SHT31;58703;48.978;8.982;2022-12-18T05:45:53;-10.44;97.77
71047;SHT31;58703;48.978;8.982;2022-12-18T05:48:21;-10.33;97.40
71047;SHT31;58703;48.978;8.982;2022-12-18T05:50:49;-10.29;97.16
71047;SHT31;58703;48.978;8.982;2022-12-18T05:53:17;-10.25;96.80
71047;SHT31;58703;48.978;8.982;2022-12-18T05:55:44;-10.22;96.76
71047;SHT31;58703;48.978;8.982;2022-12-18T05:58:11;-10.30;96.52
71047;SHT31;58703;48.978;8.982;2022-12-18T06:00:42;-10.51;96.09
71047;SHT31;58703;48.978;8.982;2022-12-18T06:03:10;-10.85;96.09
71047;SHT31;58703;48.978;8.982;2022-12-18T06:05:38;-11.02;96.26
71047;SHT31;58703;48.978;8.982;2022-12-18T06:08:04;-11.14;96.79
71047;SHT31;58703;48.978;8.982;2022-12-18T06:10:32;-11.15;96.79
71047;SHT31;58703;48.978;8.982;2022-12-18T06:12:58;-11.25;96.68
71047;SHT31;58703;48.978;8.982;2022-12-18T06:15:25;-11.38;96.68
71047;SHT31;58703;48.978;8.982;2022-12-18T06:17:52;-11.38;96.99
71047;SHT31;58703;48.978;8.982;2022-12-18T06:20:19;-11.40;97.06
71047;SHT31;58703;48.978;8.982;2022-12-18T06:22:46;-11.46;96.65
71047;SHT31;58703;48.978;8.982;2022-12-18T06:25:12;-11.55;96.71
71047;SHT31;58703;48.978;8.982;2022-12-18T06:27:39;-11.60;96.79
71047;SHT31;58703;48.978;8.982;2022-12-18T06:30:06;-11.62;96.88
71047;SHT31;58703;48.978;8.982;2022-12-18T06:32:33;-11.56;97.02
71047;SHT31;58703;48.978;8.982;2022-12-18T06:35:00;-11.53;97.42
71047;SHT31;58703;48.978;8.982;2022-12-18T06:37:27;-11.49;97.20
71047;SHT31;58703;48.978;8.982;2022-12-18T06:39:54;-11.56;97.22
71047;SHT31;58703;48.978;8.982;2022-12-18T06:42:24;-11.55;97.36
71047;SHT31;58703;48.978;8.982;2022-12-18T06:44:50;-11.65;96.88
71047;SHT31;58703;48.978;8.982;2022-12-18T06:47:16;-11.66;96.58
71047;SHT31;58703;48.978;8.982;2022-12-18T06:49:43;-11.76;97.06
71047;SHT31;58703;48.978;8.982;2022-12-18T06:52:10;-11.71;97.55
71047;SHT31;58703;48.978;8.982;2022-12-18T06:54:37;-11.65;97.12
71047;SHT31;58703;48.978;8.982;2022-12-18T06:57:04;-11.63;97.04
71047;SHT31;58703;48.978;8.982;2022-12-18T06:59:29;-11.57;97.58
71047;SHT31;58703;48.978;8.982;2022-12-18T07:01:55;-11.59;97.23
71047;SHT31;58703;48.978;8.982;2022-12-18T07:04:21;-11.71;96.85
71047;SHT31;58703;48.978;8.982;2022-12-18T07:06:46;-11.84;96.06
71047;SHT31;58703;48.978;8.982;2022-12-18T07:09:12;-11.91;96.33
71047;SHT31;58703;48.978;8.982;2022-12-18T07:11:38;-11.84;97.16
71047;SHT31;58703;48.978;8.982;2022-12-18T07:14:04;-11.81;96.69
71047;SHT31;58703;48.978;8.982;2022-12-18T07:16:29;-11.88;96.18
71047;SHT31;58703;48.978;8.982;2022-12-18T07:18:55;-11.84;95.90
71047;SHT31;58703;48.978;8.982;2022-12-18T07:21:23;-11.73;96.24
71047;SHT31;58703;48.978;8.982;2022-12-18T07:23:49;-11.77;96.42
71047;SHT31;58703;48.978;8.982;2022-12-18T07:26:17;-11.71;96.68
71047;SHT31;58703;48.978;8.982;2022-12-18T07:28:43;-11.63;96.80
71047;SHT31;58703;48.978;8.982;2022-12-18T07:31:12;-11.45;96.75
71047;SHT31;58703;48.978;8.982;2022-12-18T07:33:38;-11.25;96.74
71047;SHT31;58703;48.978;8.982;2022-12-18T07:36:06;-11.07;96.86
71047;SHT31;58703;48.978;8.982;2022-12-18T07:38:34;-11.05;96.00
71047;SHT31;58703;48.978;8.982;2022-12-18T07:41:01;-10.95;96.20
71047;SHT31;58703;48.978;8.982;2022-12-18T07:43:27;-10.80;96.22
71047;SHT31;58703;48.978;8.982;2022-12-18T07:45:53;-10.71;96.24
71047;SHT31;58703;48.978;8.982;2022-12-18T07:48:18;-10.68;96.20
71047;SHT31;58703;48.978;8.982;2022-12-18T07:50:44;-10.63;96.02
71047;SHT31;58703;48.978;8.982;2022-12-18T07:53:10;-10.57;95.88
71047;SHT31;58703;48.978;8.982;2022-12-18T07:55:35;-10.50;95.91
71047;SHT31;58703;48.978;8.982;2022-12-18T07:58:04;-10.44;96.09
71047;SHT31;58703;48.978;8.982;2022-12-18T08:00:30;-10.49;95.95
71047;SHT31;58703;48.978;8.982;2022-12-18T08:02:57;-10.39;95.88
71047;SHT31;58703;48.978;8.982;2022-12-18T08:05:23;-10.37;96.13
71047;SHT31;58703;48.978;8.982;2022-12-18T08:07:49;-10.18;96.83
71047;SHT31;58703;48.978;8.982;2022-12-18T08:10:14;-9.94;96.37
71047;SHT31;58703;48.978;8.982;2022-12-18T08:12:40;-9.69;96.46
71047;SHT31;58703;48.978;8.982;2022-12-18T08:15:07;-9.54;96.32
71047;SHT31;58703;48.978;8.982;2022-12-18T08:17:33;-9.44;95.71
71047;SHT31;58703;48.978;8.982;2022-12-18T08:19:58;-9.24;96.43
71047;SHT31;58703;48.978;8.982;2022-12-18T08:22:24;-9.09;95.90
71047;SHT31;58703;48.978;8.982;2022-12-18T08:24:50;-8.95;96.05
71047;SHT31;58703;48.978;8.982;2022-12-18T08:27:16;-8.88;95.23
71047;SHT31;58703;48.978;8.982;2022-12-18T08:29:42;-8.85;94.92
71047;SHT31;58703;48.978;8.982;2022-12-18T08:32:07;-8.73;95.10
71047;SHT31;58703;48.978;8.982;2022-12-18T08:34:33;-8.65;95.11
71047;SHT31;58703;48.978;8.982;2022-12-18T08:36:59;-8.59;94.94
71047;SHT31;58703;48.978;8.982;2022-12-18T08:39:25;-8.48;95.49
71047;SHT31;58703;48.978;8.982;2022-12-18T08:41:51;-8.13;95.55
71047;SHT31;58703;48.978;8.982;2022-12-18T08:44:35;-7.86;95.37
71047;SHT31;58703;48.978;8.982;2022-12-18T08:47:07;-7.73;94.80
71047;SHT31;58703;48.978;8.982;2022-12-18T08:49:33;-7.60;94.86
71047;SHT31;58703;48.978;8.982;2022-12-18T08:51:59;-7.49;94.81
71047;SHT31;58703;48.978;8.982;2022-12-18T08:54:25;-7.46;94.64
71047;SHT31;58703;48.978;8.982;2022-12-18T08:56:51;-7.12;95.18
71047;SHT31;58703;48.978;8.982;2022-12-18T08:59:18;-7.05;94.80
71047;SHT31;58703;48.978;8.982;2022-12-18T09:01:44;-6.91;94.74
71047;SHT31;58703;48.978;8.982;2022-12-18T09:04:11;-6.84;94.59
71047;SHT31;58703;48.978;8.982;2022-12-18T09:06:37;-6.88;93.82
71047;SHT31;58703;48.978;8.982;2022-12-18T09:09:03;-6.74;94.55
71047;SHT31;58703;48.978;8.982;2022-12-18T09:11:30;-6.71;93.28
71047;SHT31;58703;48.978;8.982;2022-12-18T09:13:57;-6.62;93.95
71047;SHT31;58703;48.978;8.982;2022-12-18T09:16:24;-6.54;93.60
71047;SHT31;58703;48.978;8.982;2022-12-18T09:18:54;-6.69;93.41
71047;SHT31;58703;48.978;8.982;2022-12-18T09:21:27;-6.56;93.65
71047;SHT31;58703;48.978;8.982;2022-12-18T09:23:55;-6.62;93.14
71047;SHT31;58703;48.978;8.982;2022-12-18T09:26:22;-6.57;93.38
71047;SHT31;58703;48.978;8.982;2022-12-18T09:28:48;-6.53;93.72
71047;SHT31;58703;48.978;8.982;2022-12-18T09:31:15;-6.66;92.74
71047;SHT31;58703;48.978;8.982;2022-12-18T09:33:41;-6.49;93.78
71047;SHT31;58703;48.978;8.982;2022-12-18T09:36:09;-6.73;93.36
71047;SHT31;58703;48.978;8.982;2022-12-18T09:38:35;-6.34;94.17
71047;SHT31;58703;48.978;8.982;2022-12-18T09:44:01;-6.56;93.29
71047;SHT31;58703;48.978;8.982;2022-12-18T09:46:31;-6.26;94.18
71047;SHT31;58703;48.978;8.982;2022-12-18T09:49:02;-6.34;93.11
71047;SHT31;58703;48.978;8.982;2022-12-18T09:51:49;-6.33;93.43
71047;SHT31;58703;48.978;8.982;2022-12-18T09:54:22;-5.95;93.66
71047;SHT31;58703;48.978;8.982;2022-12-18T09:56:48;-6.16;93.20
71047;SHT31;58703;48.978;8.982;2022-12-18T09:59:22;-5.88;93.16
71047;SHT31;58703;48.978;8.982;2022-12-18T10:01:49;-5.73;92.88
71047;SHT31;58703;48.978;8.982;2022-12-18T10:04:15;-5.47;94.00
71047;SHT31;58703;48.978;8.982;2022-12-18T10:09:34;-5.60;92.42
71047;SHT31;58703;48.978;8.982;2022-12-18T10:12:31;-5.13;93.44
71047;SHT31;58703;48.978;8.982;2022-12-18T10:21:11;-4.86;91.37
71047;SHT31;58703;48.978;8.982;2022-12-18T10:26:13;-4.45;91.85
71047;SHT31;58703;48.978;8.982;2022-12-18T10:28:40;-4.83;90.90
71047;SHT31;58703;48.978;8.982;2022-12-18T10:31:11;-4.71;91.31
71047;SHT31;58703;48.978;8.982;2022-12-18T10:33:39;-4.06;91.13
71047;SHT31;58703;48.978;8.982;2022-12-18T10:36:06;-4.57;90.83
71047;SHT31;58703;48.978;8.982;2022-12-18T10:38:32;-4.11;91.57
71047;SHT31;58703;48.978;8.982;2022-12-18T10:40:59;-4.54;90.82
71047;SHT31;58703;48.978;8.982;2022-12-18T10:48:55;-4.58;91.55
71047;SHT31;58703;48.978;8.982;2022-12-18T10:51:24;-4.00;92.10
71047;SHT31;58703;48.978;8.982;2022-12-18T10:53:57;-4.03;90.19
71047;SHT31;58703;48.978;8.982;2022-12-18T10:56:24;-3.62;90.85
71047;SHT31;58703;48.978;8.982;2022-12-18T10:58:58;-3.86;90.31
71047;SHT31;58703;48.978;8.982;2022-12-18T11:01:24;-3.34;89.88
71047;SHT31;58703;48.978;8.982;2022-12-18T11:06:17;-3.56;89.06
71047;SHT31;58703;48.978;8.982;2022-12-18T11:09:00;-2.94;90.13
71047;SHT31;58703;48.978;8.982;2022-12-18T11:11:27;-3.49;90.22
71047;SHT31;58703;48.978;8.982;2022-12-18T11:16:29;-2.98;87.86
71047;SHT31;58703;48.978;8.982;2022-12-18T11:19:26;-3.15;87.97
71047;SHT31;58703;48.978;8.982;2022-12-18T11:21:55;-2.32;88.43
71047;SHT31;58703;48.978;8.982;2022-12-18T11:24:32;-1.61;87.62
71047;SHT31;58703;48.978;8.982;2022-12-18T11:27:02;-1.60;84.91
71047;SHT31;58703;48.978;8.982;2022-12-18T11:29:34;-1.89;84.80
71047;SHT31;58703;48.978;8.982;2022-12-18T11:32:35;-2.16;84.77
71047;SHT31;58703;48.978;8.982;2022-12-18T11:38:10;-2.29;84.94
71047;SHT31;58703;48.978;8.982;2022-12-18T11:40:42;-2.87;86.39
71047;SHT31;58703;48.978;8.982;2022-12-18T11:43:21;-2.43;87.52
71047;SHT31;58703;48.978;8.982;2022-12-18T11:46:00;-2.13;87.28
71047;SHT31;58703;48.978;8.982;2022-12-18T11:48:33;-2.12;85.92
71047;SHT31;58703;48.978;8.982;2022-12-18T11:51:03;-2.05;86.24
71047;SHT31;58703;48.978;8.982;2022-12-18T11:53:31;-1.94;85.48
71047;SHT31;58703;48.978;8.982;2022-12-18T11:59:08;-2.05;86.36
71047;SHT31;58703;48.978;8.982;2022-12-18T12:01:56;-2.56;86.84
71047;SHT31;58703;48.978;8.982;2022-12-18T12:04:56;-2.52;87.50
71047;SHT31;58703;48.978;8.982;2022-12-18T12:07:51;-2.18;86.31
71047;SHT31;58703;48.978;8.982;2022-12-18T12:12:59;-2.08;86.70
71047;SHT31;58703;48.978;8.982;2022-12-18T12:15:39;-1.80;84.14
71047;SHT31;58703;48.978;8.982;2022-12-18T12:21:24;-1.57;83.33
71047;SHT31;58703;48.978;8.982;2022-12-18T12:24:17;-1.27;83.37
71047;SHT31;58703;48.978;8.982;2022-12-18T12:41:05;-2.19;84.10
71047;SHT31;58703;48.978;8.982;2022-12-18T12:43:53;-1.98;85.07
71047;SHT31;58703;48.978;8.982;2022-12-18T12:46:22;-2.12;85.46
71047;SHT31;58703;48.978;8.982;2022-12-18T12:48:53;-1.72;84.34
71047;SHT31;58703;48.978;8.982;2022-12-18T12:51:29;-1.15;84.97
71047;SHT31;58703;48.978;8.982;2022-12-18T12:53:58;-1.32;82.31
71047;SHT31;58703;48.978;8.982;2022-12-18T12:56:35;-1.35;83.70
71047;SHT31;58703;48.978;8.982;2022-12-18T13:01:40;-1.39;84.24
71047;SHT31;58703;48.978;8.982;2022-12-18T13:04:29;-1.54;83.93
71047;SHT31;58703;48.978;8.982;2022-12-18T13:13:13;-1.85;84.78
71047;SHT31;58703;48.978;8.982;2022-12-18T13:15:42;-1.54;84.69
71047;SHT31;58703;48.978;8.982;2022-12-18T13:20:35;-1.16;85.25
71047;SHT31;58703;48.978;8.982;2022-12-18T13:23:26;-1.06;85.25
71047;SHT31;58703;48.978;8.982;2022-12-18T13:34:24;-1.51;83.75
71047;SHT31;58703;48.978;8.982;2022-12-18T13:36:51;-1.37;85.22
71047;SHT31;58703;48.978;8.982;2022-12-18T13:41:45;-0.99;83.71
71047;SHT31;58703;48.978;8.982;2022-12-18T13:44:22;-1.12;84.08
71047;SHT31;58703;48.978;8.982;2022-12-18T13:46:50;-1.32;84.30
71047;SHT31;58703;48.978;8.982;2022-12-18T13:51:44;-1.35;83.42
71047;SHT31;58703;48.978;8.982;2022-12-18T13:56:56;-1.19;84.62
71047;SHT31;58703;48.978;8.982;2022-12-18T13:59:35;-1.33;84.04
71047;SHT31;58703;48.978;8.982;2022-12-18T14:02:15;-1.25;84.71
71047;SHT31;58703;48.978;8.982;2022-12-18T14:04:45;-1.39;84.42
71047;SHT31;58703;48.978;8.982;2022-12-18T14:07:17;-1.48;84.59
71047;SHT31;58703;48.978;8.982;2022-12-18T14:09:46;-1.46;84.94
71047;SHT31;58703;48.978;8.982;2022-12-18T14:12:25;-1.57;84.91
71047;SHT31;58703;48.978;8.982;2022-12-18T14:17:59;-1.77;85.12
71047;SHT31;58703;48.978;8.982;2022-12-18T14:20:26;-1.80;85.33
71047;SHT31;58703;48.978;8.982;2022-12-18T14:22:53;-1.78;85.53
71047;SHT31;58703;48.978;8.982;2022-12-18T14:25:24;-1.87;85.66
71047;SHT31;58703;48.978;8.982;2022-12-18T14:27:53;-1.91;86.03
71047;SHT31;58703;48.978;8.982;2022-12-18T14:30:25;-1.84;86.24
71047;SHT31;58703;48.978;8.982;2022-12-18T14:33:05;-1.82;86.40
71047;SHT31;58703;48.978;8.982;2022-12-18T14:35:39;-1.98;86.30
71047;SHT31;58703;48.978;8.982;2022-12-18T14:38:10;-1.98;86.87
71047;SHT31;58703;48.978;8.982;2022-12-18T14:40:36;-1.95;86.90
71047;SHT31;58703;48.978;8.982;2022-12-18T14:43:02;-2.02;86.88
71047;SHT31;58703;48.978;8.982;2022-12-18T14:45:36;-2.13;87.10
71047;SHT31;58703;48.978;8.982;2022-12-18T14:51:16;-2.28;87.73
71047;SHT31;58703;48.978;8.982;2022-12-18T14:53:44;-2.38;87.89
71047;SHT31;58703;48.978;8.982;2022-12-18T14:56:19;-2.46;88.24
71047;SHT31;58703;48.978;8.982;2022-12-18T14:58:53;-2.45;88.55
71047;SHT31;58703;48.978;8.982;2022-12-18T15:02:10;-2.45;88.95
71047;SHT31;58703;48.978;8.982;2022-12-18T15:04:27;-2.46;89.50
71047;SHT31;58703;48.978;8.982;2022-12-18T15:09:38;-2.50;89.54
71047;SHT31;58703;48.978;8.982;2022-12-18T15:12:04;-2.63;89.38
71047;SHT31;58703;48.978;8.982;2022-12-18T15:17:18;-2.77;90.18
71047;SHT31;58703;48.978;8.982;2022-12-18T15:19:45;-2.81;90.17
71047;SHT31;58703;48.978;8.982;2022-12-18T15:22:19;-2.88;90.45
71047;SHT31;58703;48.978;8.982;2022-12-18T15:24:46;-2.93;90.65
71047;SHT31;58703;48.978;8.982;2022-12-18T15:32:39;-3.08;91.04
71047;SHT31;58703;48.978;8.982;2022-12-18T15:35:16;-3.21;91.20
71047;SHT31;58703;48.978;8.982;2022-12-18T15:37:42;-3.15;91.68
71047;SHT31;58703;48.978;8.982;2022-12-18T15:40:13;-3.21;91.85
71047;SHT31;58703;48.978;8.982;2022-12-18T15:42:39;-3.24;92.12
71047;SHT31;58703;48.978;8.982;2022-12-18T15:45:23;-3.32;91.78
71047;SHT31;58703;48.978;8.982;2022-12-18T15:47:49;-3.35;91.94
71047;SHT31;58703;48.978;8.982;2022-12-18T15:50:14;-3.35;92.24
71047;SHT31;58703;48.978;8.982;2022-12-18T15:52:45;-3.38;92.29
71047;SHT31;58703;48.978;8.982;2022-12-18T15:55:17;-3.44;92.29
71047;SHT31;58703;48.978;8.982;2022-12-18T15:58:04;-3.56;92.28
71047;SHT31;58703;48.978;8.982;2022-12-18T16:00:31;-3.49;92.64
71047;SHT31;58703;48.978;8.982;2022-12-18T16:02:57;-3.49;92.33
71047;SHT31;58703;48.978;8.982;2022-12-18T16:05:23;-3.52;92.38
71047;SHT31;58703;48.978;8.982;2022-12-18T16:07:49;-3.60;92.28
71047;SHT31;58703;48.978;8.982;2022-12-18T16:10:15;-3.59;92.52
71047;SHT31;58703;48.978;8.982;2022-12-18T16:12:41;-3.66;92.72
71047;SHT31;58703;48.978;8.982;2022-12-18T16:15:07;-3.73;92.71
71047;SHT31;58703;48.978;8.982;2022-12-18T16:17:33;-3.65;93.04
71047;SHT31;58703;48.978;8.982;2022-12-18T16:19:59;-3.62;92.62
71047;SHT31;58703;48.978;8.982;2022-12-18T16:22:27;-3.62;92.54
71047;SHT31;58703;48.978;8.982;2022-12-18T16:24:54;-3.59;92.25
71047;SHT31;58703;48.978;8.982;2022-12-18T16:27:21;-3.58;92.37
71047;SHT31;58703;48.978;8.982;2022-12-18T16:29:48;-3.62;92.28
71047;SHT31;58703;48.978;8.982;2022-12-18T16:32:19;-3.60;92.46
71047;SHT31;58703;48.978;8.982;2022-12-18T16:34:46;-3.66;92.39
71047;SHT31;58703;48.978;8.982;2022-12-18T16:37:13;-3.69;92.62
71047;SHT31;58703;48.978;8.982;2022-12-18T16:39:40;-3.73;92.81
71047;SHT31;58703;48.978;8.982;2022-12-18T16:42:14;-3.73;92.74
71047;SHT31;58703;48.978;8.982;2022-12-18T16:44:42;-3.70;92.85
71047;SHT31;58703;48.978;8.982;2022-12-18T16:47:08;-3.72;92.92
71047;SHT31;58703;48.978;8.982;2022-12-18T16:49:34;-3.68;92.74
71047;SHT31;58703;48.978;8.982;2022-12-18T16:52:00;-3.68;92.60
71047;SHT31;58703;48.978;8.982;2022-12-18T16:54:26;-3.60;92.70
71047;SHT31;58703;48.978;8.982;2022-12-18T16:56:54;-3.56;92.63
71047;SHT31;58703;48.978;8.982;2022-12-18T16:59:20;-3.51;92.15
71047;SHT31;58703;48.978;8.982;2022-12-18T17:01:46;-3.51;92.15
71047;SHT31;58703;48.978;8.982;2022-12-18T17:04:13;-3.51;92.12
71047;SHT31;58703;48.978;8.982;2022-12-18T17:06:41;-3.51;92.12
71047;SHT31;58703;48.978;8.982;2022-12-18T17:09:10;-3.41;92.07
71047;SHT31;58703;48.978;8.982;2022-12-18T17:11:36;-3.36;91.96
71047;SHT31;58703;48.978;8.982;2022-12-18T17:14:12;-3.31;91.89
71047;SHT31;58703;48.978;8.982;2022-12-18T17:16:38;-3.31;91.74
71047;SHT31;58703;48.978;8.982;2022-12-18T17:19:03;-3.32;91.72
71047;SHT31;58703;48.978;8.982;2022-12-18T17:21:29;-3.32;91.74
71047;SHT31;58703;48.978;8.982;2022-12-18T17:23:58;-3.31;91.75
71047;SHT31;58703;48.978;8.982;2022-12-18T17:26:24;-3.36;91.87
71047;SHT31;58703;48.978;8.982;2022-12-18T17:28:49;-3.34;92.01
71047;SHT31;58703;48.978;8.982;2022-12-18T17:31:17;-3.36;91.88
71047;SHT31;58703;48.978;8.982;2022-12-18T17:33:44;-3.34;91.85
71047;SHT31;58703;48.978;8.982;2022-12-18T17:36:10;-3.32;91.89